Woodbine, Georgia
Current Conditions -  °F | °C
As of 2:32 PM on Monday 22 Dec 2014 (Local Time) from KSSI Reporting Station
Light Rain Light Rain  
Wind Chill: 57°   Ceiling: 200
Heat Index: 57°   Visibility: 2.5mi
Dew Point: 56°   Wind: 8mph
Humidity: 96%   Direction: 360°N
Pressure: 29.94"   Gusts: NA
Location:  30.96°N, 81.72°W
Report Text: KSSI 221932Z AUTO 36007KT 2 1/2SM -RA BR OVC002 14/13 A2994 RMK AO2 LTG DSNT SW P0001 T01390133
Loading
Personal Weather Stations






























Interactive Weather Map New forecast layout! Learn more

10-Day Weather Forecast

Advertisements
Track Severe Weather on mobile